sensor_id;sensor_type;location;lat;lon;timestamp;pressure;altitude;pressure_sealevel;temperature;humidity
48530;BME280;34927;37.302;-121.982;2022-12-18T00:00:40;100938.0;;;22.97;30.55
48530;BME280;34927;37.302;-121.982;2022-12-18T00:01:46;100938.0;;;22.96;30.58
48530;BME280;34927;37.302;-121.982;2022-12-18T00:02:51;100940.0;;;23.00;30.50
48530;BME280;34927;37.302;-121.982;2022-12-18T00:03:57;100939.0;;;22.96;30.56
48530;BME280;34927;37.302;-121.982;2022-12-18T00:05:01;100941.0;;;22.96;30.53
48530;BME280;34927;37.302;-121.982;2022-12-18T00:06:08;100940.0;;;23.01;30.48
48530;BME280;34927;37.302;-121.982;2022-12-18T00:07:12;100940.0;;;23.03;30.43
48530;BME280;34927;37.302;-121.982;2022-12-18T00:08:17;100941.0;;;23.04;30.45
48530;BME280;34927;37.302;-121.982;2022-12-18T00:09:22;100940.0;;;22.97;30.49
48530;BME280;34927;37.302;-121.982;2022-12-18T00:10:27;100940.0;;;22.96;30.51
48530;BME280;34927;37.302;-121.982;2022-12-18T00:11:31;100941.0;;;22.99;30.48
48530;BME280;34927;37.302;-121.982;2022-12-18T00:12:36;100938.0;;;23.03;30.40
48530;BME280;34927;37.302;-121.982;2022-12-18T00:13:42;100940.0;;;23.02;30.41
48530;BME280;34927;37.302;-121.982;2022-12-18T00:14:46;100940.0;;;23.07;30.37
48530;BME280;34927;37.302;-121.982;2022-12-18T00:15:51;100940.0;;;23.07;30.32
48530;BME280;34927;37.302;-121.982;2022-12-18T00:16:56;100939.0;;;22.98;30.47
48530;BME280;34927;37.302;-121.982;2022-12-18T00:18:03;100937.0;;;22.93;30.62
48530;BME280;34927;37.302;-121.982;2022-12-18T00:19:07;100937.0;;;22.91;30.60
48530;BME280;34927;37.302;-121.982;2022-12-18T00:20:11;100936.0;;;23.02;30.47
48530;BME280;34927;37.302;-121.982;2022-12-18T00:21:17;100935.0;;;23.04;30.41
48530;BME280;34927;37.302;-121.982;2022-12-18T00:22:22;100933.0;;;22.95;30.52
48530;BME280;34927;37.302;-121.982;2022-12-18T00:23:27;100933.0;;;22.95;30.57
48530;BME280;34927;37.302;-121.982;2022-12-18T00:24:31;100933.0;;;22.86;30.63
48530;BME280;34927;37.302;-121.982;2022-12-18T00:25:36;100934.0;;;22.84;30.69
48530;BME280;34927;37.302;-121.982;2022-12-18T00:26:41;100932.0;;;22.84;30.72
48530;BME280;34927;37.302;-121.982;2022-12-18T00:27:47;100933.0;;;22.77;30.80
48530;BME280;34927;37.302;-121.982;2022-12-18T00:28:52;100931.0;;;22.74;30.84
48530;BME280;34927;37.302;-121.982;2022-12-18T00:29:56;100930.0;;;22.68;30.96
48530;BME280;34927;37.302;-121.982;2022-12-18T00:31:02;100931.0;;;22.64;31.03
48530;BME280;34927;37.302;-121.982;2022-12-18T00:32:06;100931.0;;;22.62;30.99
48530;BME280;34927;37.302;-121.982;2022-12-18T00:33:11;100931.0;;;22.59;31.02
48530;BME280;34927;37.302;-121.982;2022-12-18T00:34:16;100931.0;;;22.59;31.03
48530;BME280;34927;37.302;-121.982;2022-12-18T00:35:21;100931.0;;;22.58;31.03
48530;BME280;34927;37.302;-121.982;2022-12-18T00:36:29;100933.0;;;22.62;31.03
48530;BME280;34927;37.302;-121.982;2022-12-18T00:37:36;100929.0;;;22.53;31.07
48530;BME280;34927;37.302;-121.982;2022-12-18T00:38:42;100930.0;;;22.53;31.10
48530;BME280;34927;37.302;-121.982;2022-12-18T00:39:48;100929.0;;;22.49;31.15
48530;BME280;34927;37.302;-121.982;2022-12-18T00:40:52;100927.0;;;22.36;31.34
48530;BME280;34927;37.302;-121.982;2022-12-18T00:41:56;100928.0;;;22.26;31.55
48530;BME280;34927;37.302;-121.982;2022-12-18T00:43:01;100926.0;;;22.19;31.67
48530;BME280;34927;37.302;-121.982;2022-12-18T00:44:09;100924.0;;;22.24;31.66
48530;BME280;34927;37.302;-121.982;2022-12-18T00:45:12;100925.0;;;22.17;31.71
48530;BME280;34927;37.302;-121.982;2022-12-18T00:46:16;100925.0;;;22.16;31.74
48530;BME280;34927;37.302;-121.982;2022-12-18T00:47:22;100927.0;;;22.14;31.74
48530;BME280;34927;37.302;-121.982;2022-12-18T00:48:27;100928.0;;;22.08;31.82
48530;BME280;34927;37.302;-121.982;2022-12-18T00:49:31;100929.0;;;22.10;31.80
48530;BME280;34927;37.302;-121.982;2022-12-18T00:50:36;100930.0;;;22.10;31.83
48530;BME280;34927;37.302;-121.982;2022-12-18T00:51:42;100929.0;;;22.06;31.80
48530;BME280;34927;37.302;-121.982;2022-12-18T00:52:47;100930.0;;;22.06;31.77
48530;BME280;34927;37.302;-121.982;2022-12-18T00:53:53;100932.0;;;22.01;31.84
48530;BME280;34927;37.302;-121.982;2022-12-18T00:54:56;100931.0;;;21.96;31.96
48530;BME280;34927;37.302;-121.982;2022-12-18T00:56:02;100933.0;;;21.90;32.06
48530;BME280;34927;37.302;-121.982;2022-12-18T00:57:06;100933.0;;;21.86;32.11
48530;BME280;34927;37.302;-121.982;2022-12-18T00:58:13;100932.0;;;21.85;32.14
48530;BME280;34927;37.302;-121.982;2022-12-18T00:59:17;100932.0;;;21.90;32.14
48530;BME280;34927;37.302;-121.982;2022-12-18T01:00:22;100935.0;;;21.89;32.14
48530;BME280;34927;37.302;-121.982;2022-12-18T01:01:26;100933.0;;;21.85;32.10
48530;BME280;34927;37.302;-121.982;2022-12-18T01:02:32;100933.0;;;21.95;31.91
48530;BME280;34927;37.302;-121.982;2022-12-18T01:03:36;100934.0;;;22.18;31.54
48530;BME280;34927;37.302;-121.982;2022-12-18T01:04:41;100931.0;;;22.04;31.73
48530;BME280;34927;37.302;-121.982;2022-12-18T01:05:47;100931.0;;;21.98;31.79
48530;BME280;34927;37.302;-121.982;2022-12-18T01:06:52;100931.0;;;21.96;31.87
48530;BME280;34927;37.302;-121.982;2022-12-18T01:07:57;100931.0;;;21.92;31.93
48530;BME280;34927;37.302;-121.982;2022-12-18T01:09:02;100932.0;;;21.91;31.94
48530;BME280;34927;37.302;-121.982;2022-12-18T01:10:09;100932.0;;;21.94;31.90
48530;BME280;34927;37.302;-121.982;2022-12-18T01:11:13;100934.0;;;21.91;31.89
48530;BME280;34927;37.302;-121.982;2022-12-18T01:12:17;100936.0;;;21.95;31.86
48530;BME280;34927;37.302;-121.982;2022-12-18T01:13:22;100936.0;;;21.94;31.83
48530;BME280;34927;37.302;-121.982;2022-12-18T01:14:27;100938.0;;;21.92;31.85
48530;BME280;34927;37.302;-121.982;2022-12-18T01:15:31;100937.0;;;21.93;31.87
48530;BME280;34927;37.302;-121.982;2022-12-18T01:16:36;100938.0;;;21.90;31.85
48530;BME280;34927;37.302;-121.982;2022-12-18T01:17:42;100938.0;;;21.91;31.86
48530;BME280;34927;37.302;-121.982;2022-12-18T01:18:47;100943.0;;;21.85;31.92
48530;BME280;34927;37.302;-121.982;2022-12-18T01:19:51;100944.0;;;21.85;31.90
48530;BME280;34927;37.302;-121.982;2022-12-18T01:20:56;100941.0;;;21.87;31.89
48530;BME280;34927;37.302;-121.982;2022-12-18T01:22:02;100941.0;;;21.84;31.93
48530;BME280;34927;37.302;-121.982;2022-12-18T01:23:06;100944.0;;;21.85;31.90
48530;BME280;34927;37.302;-121.982;2022-12-18T01:24:12;100944.0;;;21.82;31.90
48530;BME280;34927;37.302;-121.982;2022-12-18T01:25:16;100946.0;;;21.84;31.90
48530;BME280;34927;37.302;-121.982;2022-12-18T01:26:22;100946.0;;;21.85;31.88
48530;BME280;34927;37.302;-121.982;2022-12-18T01:27:27;100946.0;;;21.81;31.94
48530;BME280;34927;37.302;-121.982;2022-12-18T01:28:32;100944.0;;;21.80;31.91
48530;BME280;34927;37.302;-121.982;2022-12-18T01:29:37;100944.0;;;21.79;31.96
48530;BME280;34927;37.302;-121.982;2022-12-18T01:30:41;100943.0;;;21.74;31.99
48530;BME280;34927;37.302;-121.982;2022-12-18T01:31:46;100946.0;;;21.77;31.97
48530;BME280;34927;37.302;-121.982;2022-12-18T01:32:52;100943.0;;;21.77;31.97
48530;BME280;34927;37.302;-121.982;2022-12-18T01:33:57;100943.0;;;21.75;32.00
48530;BME280;34927;37.302;-121.982;2022-12-18T01:35:02;100943.0;;;21.72;32.00
48530;BME280;34927;37.302;-121.982;2022-12-18T01:36:07;100941.0;;;21.75;31.98
48530;BME280;34927;37.302;-121.982;2022-12-18T01:37:12;100944.0;;;21.77;31.93
48530;BME280;34927;37.302;-121.982;2022-12-18T01:38:17;100945.0;;;21.77;31.92
48530;BME280;34927;37.302;-121.982;2022-12-18T01:39:21;100946.0;;;21.77;31.91
48530;BME280;34927;37.302;-121.982;2022-12-18T01:40:26;100948.0;;;21.69;32.00
48530;BME280;34927;37.302;-121.982;2022-12-18T01:41:33;100949.0;;;21.77;31.95
48530;BME280;34927;37.302;-121.982;2022-12-18T01:42:37;100949.0;;;21.73;31.98
48530;BME280;34927;37.302;-121.982;2022-12-18T01:43:44;100948.0;;;21.65;32.07
48530;BME280;34927;37.302;-121.982;2022-12-18T01:46:02;100950.0;;;21.66;32.06
48530;BME280;34927;37.302;-121.982;2022-12-18T01:47:06;100952.0;;;21.65;32.06
48530;BME280;34927;37.302;-121.982;2022-12-18T01:48:11;100952.0;;;21.60;32.15
48530;BME280;34927;37.302;-121.982;2022-12-18T01:49:16;100950.0;;;21.62;32.13
48530;BME280;34927;37.302;-121.982;2022-12-18T01:50:25;100951.0;;;21.56;32.19
48530;BME280;34927;37.302;-121.982;2022-12-18T01:51:31;100948.0;;;21.55;32.22
48530;BME280;34927;37.302;-121.982;2022-12-18T01:52:37;100949.0;;;21.55;32.19
48530;BME280;34927;37.302;-121.982;2022-12-18T01:53:42;100948.0;;;21.54;32.19
48530;BME280;34927;37.302;-121.982;2022-12-18T01:54:48;100951.0;;;21.52;32.23
48530;BME280;34927;37.302;-121.982;2022-12-18T01:55:53;100950.0;;;21.56;32.20
48530;BME280;34927;37.302;-121.982;2022-12-18T01:56:57;100947.0;;;21.53;32.23
48530;BME280;34927;37.302;-121.982;2022-12-18T01:58:01;100948.0;;;21.46;32.30
48530;BME280;34927;37.302;-121.982;2022-12-18T01:59:08;100947.0;;;21.41;32.35
48530;BME280;34927;37.302;-121.982;2022-12-18T02:00:15;100949.0;;;21.39;32.34
48530;BME280;34927;37.302;-121.982;2022-12-18T02:01:23;100950.0;;;21.45;32.29
48530;BME280;34927;37.302;-121.982;2022-12-18T02:02:28;100950.0;;;21.42;32.33
48530;BME280;34927;37.302;-121.982;2022-12-18T02:03:36;100951.0;;;21.38;32.39
48530;BME280;34927;37.302;-121.982;2022-12-18T02:04:41;100949.0;;;21.35;32.43
48530;BME280;34927;37.302;-121.982;2022-12-18T02:05:51;100948.0;;;21.36;32.44
48530;BME280;34927;37.302;-121.982;2022-12-18T02:07:07;100948.0;;;21.33;32.45
48530;BME280;34927;37.302;-121.982;2022-12-18T02:08:21;100950.0;;;21.32;32.48
48530;BME280;34927;37.302;-121.982;2022-12-18T02:09:31;100949.0;;;21.35;32.45
48530;BME280;34927;37.302;-121.982;2022-12-18T02:10:43;100950.0;;;21.26;32.57
48530;BME280;34927;37.302;-121.982;2022-12-18T02:11:55;100951.0;;;21.24;32.59
48530;BME280;34927;37.302;-121.982;2022-12-18T02:13:10;100948.0;;;21.22;32.61
48530;BME280;34927;37.302;-121.982;2022-12-18T02:14:21;100948.0;;;21.26;32.57
48530;BME280;34927;37.302;-121.982;2022-12-18T02:15:34;100948.0;;;21.23;32.57
48530;BME280;34927;37.302;-121.982;2022-12-18T02:16:46;100947.0;;;21.20;32.60
48530;BME280;34927;37.302;-121.982;2022-12-18T02:18:02;100946.0;;;21.17;32.64
48530;BME280;34927;37.302;-121.982;2022-12-18T02:19:27;100945.0;;;21.14;32.68
48530;BME280;34927;37.302;-121.982;2022-12-18T02:20:39;100944.0;;;21.18;32.68
48530;BME280;34927;37.302;-121.982;2022-12-18T02:21:51;100943.0;;;21.06;32.74
48530;BME280;34927;37.302;-121.982;2022-12-18T02:23:09;100945.0;;;21.06;32.79
48530;BME280;34927;37.302;-121.982;2022-12-18T02:24:28;100946.0;;;21.09;32.79
48530;BME280;34927;37.302;-121.982;2022-12-18T02:25:57;100944.0;;;21.08;32.79
48530;BME280;34927;37.302;-121.982;2022-12-18T02:27:08;100942.0;;;21.04;32.79
48530;BME280;34927;37.302;-121.982;2022-12-18T02:28:13;100940.0;;;21.12;32.71
48530;BME280;34927;37.302;-121.982;2022-12-18T02:29:25;100938.0;;;21.02;32.79
48530;BME280;34927;37.302;-121.982;2022-12-18T02:30:33;100942.0;;;21.06;32.77
48530;BME280;34927;37.302;-121.982;2022-12-18T02:31:39;100939.0;;;20.97;32.89
48530;BME280;34927;37.302;-121.982;2022-12-18T02:32:45;100939.0;;;21.03;32.83
48530;BME280;34927;37.302;-121.982;2022-12-18T02:33:54;100938.0;;;21.06;32.73
48530;BME280;34927;37.302;-121.982;2022-12-18T02:35:04;100937.0;;;21.01;32.73
48530;BME280;34927;37.302;-121.982;2022-12-18T02:36:08;100936.0;;;20.98;32.86
48530;BME280;34927;37.302;-121.982;2022-12-18T02:37:14;100937.0;;;20.94;32.90
48530;BME280;34927;37.302;-121.982;2022-12-18T02:38:22;100936.0;;;20.90;32.95
48530;BME280;34927;37.302;-121.982;2022-12-18T02:39:28;100936.0;;;20.93;32.88
48530;BME280;34927;37.302;-121.982;2022-12-18T02:40:32;100936.0;;;20.94;32.92
48530;BME280;34927;37.302;-121.982;2022-12-18T02:41:37;100937.0;;;20.89;32.94
48530;BME280;34927;37.302;-121.982;2022-12-18T02:42:41;100939.0;;;20.87;33.00
48530;BME280;34927;37.302;-121.982;2022-12-18T02:43:48;100938.0;;;20.81;33.05
48530;BME280;34927;37.302;-121.982;2022-12-18T02:44:52;100938.0;;;20.85;33.01
48530;BME280;34927;37.302;-121.982;2022-12-18T02:45:58;100939.0;;;20.81;33.02
48530;BME280;34927;37.302;-121.982;2022-12-18T02:47:02;100940.0;;;20.87;32.94
48530;BME280;34927;37.302;-121.982;2022-12-18T02:48:08;100942.0;;;20.82;33.04
48530;BME280;34927;37.302;-121.982;2022-12-18T02:49:21;100941.0;;;20.80;33.05
48530;BME280;34927;37.302;-121.982;2022-12-18T02:50:36;100941.0;;;20.82;33.02
48530;BME280;34927;37.302;-121.982;2022-12-18T02:51:50;100944.0;;;20.81;33.06
48530;BME280;34927;37.302;-121.982;2022-12-18T02:53:05;100944.0;;;20.72;33.11
48530;BME280;34927;37.302;-121.982;2022-12-18T02:54:24;100948.0;;;20.74;33.08
48530;BME280;34927;37.302;-121.982;2022-12-18T02:55:38;100947.0;;;20.74;33.12
48530;BME280;34927;37.302;-121.982;2022-12-18T02:56:50;100948.0;;;20.69;33.15
48530;BME280;34927;37.302;-121.982;2022-12-18T02:58:00;100951.0;;;20.74;33.05
48530;BME280;34927;37.302;-121.982;2022-12-18T02:59:09;100949.0;;;20.69;33.17
48530;BME280;34927;37.302;-121.982;2022-12-18T03:00:20;100951.0;;;20.68;33.14
48530;BME280;34927;37.302;-121.982;2022-12-18T03:01:33;100949.0;;;20.62;33.23
48530;BME280;34927;37.302;-121.982;2022-12-18T03:02:45;100948.0;;;20.66;33.21
48530;BME280;34927;37.302;-121.982;2022-12-18T03:03:55;100950.0;;;20.64;33.26
48530;BME280;34927;37.302;-121.982;2022-12-18T03:05:07;100947.0;;;20.67;33.10
48530;BME280;34927;37.302;-121.982;2022-12-18T03:06:18;100948.0;;;20.63;33.21
48530;BME280;34927;37.302;-121.982;2022-12-18T03:07:35;100949.0;;;20.62;33.21
48530;BME280;34927;37.302;-121.982;2022-12-18T03:08:44;100948.0;;;20.62;33.21
48530;BME280;34927;37.302;-121.982;2022-12-18T03:09:53;100947.0;;;20.61;33.20
48530;BME280;34927;37.302;-121.982;2022-12-18T03:11:02;100948.0;;;20.53;33.35
48530;BME280;34927;37.302;-121.982;2022-12-18T03:12:10;100951.0;;;20.51;33.32
48530;BME280;34927;37.302;-121.982;2022-12-18T03:13:21;100950.0;;;20.57;33.27
48530;BME280;34927;37.302;-121.982;2022-12-18T03:14:30;100948.0;;;20.50;33.32
48530;BME280;34927;37.302;-121.982;2022-12-18T03:15:39;100949.0;;;20.52;33.34
48530;BME280;34927;37.302;-121.982;2022-12-18T03:16:48;100950.0;;;20.47;33.40
48530;BME280;34927;37.302;-121.982;2022-12-18T03:17:55;100951.0;;;20.52;33.28
48530;BME280;34927;37.302;-121.982;2022-12-18T03:19:04;100951.0;;;20.48;33.36
48530;BME280;34927;37.302;-121.982;2022-12-18T03:20:17;100951.0;;;20.47;33.36
48530;BME280;34927;37.302;-121.982;2022-12-18T03:21:26;100952.0;;;20.50;33.32
48530;BME280;34927;37.302;-121.982;2022-12-18T03:22:33;100951.0;;;20.42;33.43
48530;BME280;34927;37.302;-121.982;2022-12-18T03:23:40;100951.0;;;20.50;33.32
48530;BME280;34927;37.302;-121.982;2022-12-18T03:24:46;100948.0;;;20.50;33.30
48530;BME280;34927;37.302;-121.982;2022-12-18T03:25:54;100950.0;;;20.47;33.29
48530;BME280;34927;37.302;-121.982;2022-12-18T03:27:04;100948.0;;;20.44;33.40
48530;BME280;34927;37.302;-121.982;2022-12-18T03:28:14;100950.0;;;20.33;33.50
48530;BME280;34927;37.302;-121.982;2022-12-18T03:29:24;100947.0;;;20.37;33.44
48530;BME280;34927;37.302;-121.982;2022-12-18T03:30:34;100947.0;;;20.37;33.44
48530;BME280;34927;37.302;-121.982;2022-12-18T03:31:45;100947.0;;;20.35;33.49
48530;BME280;34927;37.302;-121.982;2022-12-18T03:32:56;100948.0;;;20.34;33.47
48530;BME280;34927;37.302;-121.982;2022-12-18T03:34:05;100947.0;;;20.32;33.50
48530;BME280;34927;37.302;-121.982;2022-12-18T03:35:15;100947.0;;;20.23;33.65
48530;BME280;34927;37.302;-121.982;2022-12-18T03:36:22;100943.0;;;20.26;33.62
48530;BME280;34927;37.302;-121.982;2022-12-18T03:37:27;100942.0;;;20.26;33.58
48530;BME280;34927;37.302;-121.982;2022-12-18T03:38:36;100942.0;;;20.27;33.55
48530;BME280;34927;37.302;-121.982;2022-12-18T03:39:41;100941.0;;;20.27;33.55
48530;BME280;34927;37.302;-121.982;2022-12-18T03:40:56;100939.0;;;20.25;33.55
48530;BME280;34927;37.302;-121.982;2022-12-18T03:42:05;100938.0;;;20.21;33.58
48530;BME280;34927;37.302;-121.982;2022-12-18T03:43:16;100937.0;;;20.19;33.64
48530;BME280;34927;37.302;-121.982;2022-12-18T03:44:26;100935.0;;;20.18;33.64
48530;BME280;34927;37.302;-121.982;2022-12-18T03:45:34;100932.0;;;20.27;33.47
48530;BME280;34927;37.302;-121.982;2022-12-18T03:46:46;100930.0;;;20.28;33.45
48530;BME280;34927;37.302;-121.982;2022-12-18T03:48:00;100930.0;;;20.26;33.47
48530;BME280;34927;37.302;-121.982;2022-12-18T03:49:09;100932.0;;;20.19;33.57
48530;BME280;34927;37.302;-121.982;2022-12-18T03:50:19;100928.0;;;20.17;33.64
48530;BME280;34927;37.302;-121.982;2022-12-18T03:51:36;100932.0;;;20.16;33.61
48530;BME280;34927;37.302;-121.982;2022-12-18T03:52:45;100931.0;;;20.17;33.61
48530;BME280;34927;37.302;-121.982;2022-12-18T03:53:55;100931.0;;;20.20;33.58
48530;BME280;34927;37.302;-121.982;2022-12-18T03:55:03;100929.0;;;20.10;33.67
48530;BME280;34927;37.302;-121.982;2022-12-18T03:56:07;100929.0;;;20.05;33.71
48530;BME280;34927;37.302;-121.982;2022-12-18T03:57:15;100929.0;;;20.03;33.84
48530;BME280;34927;37.302;-121.982;2022-12-18T03:58:24;100926.0;;;20.04;33.80
48530;BME280;34927;37.302;-121.982;2022-12-18T03:59:32;100927.0;;;19.97;33.86
48530;BME280;34927;37.302;-121.982;2022-12-18T04:00:37;100927.0;;;19.98;33.84
48530;BME280;34927;37.302;-121.982;2022-12-18T04:01:45;100926.0;;;20.06;33.75
48530;BME280;34927;37.302;-121.982;2022-12-18T04:02:54;100926.0;;;20.04;33.76
48530;BME280;34927;37.302;-121.982;2022-12-18T04:03:57;100926.0;;;19.99;33.74
48530;BME280;34927;37.302;-121.982;2022-12-18T04:05:04;100925.0;;;20.03;33.74
48530;BME280;34927;37.302;-121.982;2022-12-18T04:06:07;100925.0;;;20.02;33.75
48530;BME280;34927;37.302;-121.982;2022-12-18T04:07:12;100923.0;;;19.98;33.79
48530;BME280;34927;37.302;-121.982;2022-12-18T04:08:16;100925.0;;;19.90;33.94
48530;BME280;34927;37.302;-121.982;2022-12-18T04:09:21;100925.0;;;20.04;33.71
48530;BME280;34927;37.302;-121.982;2022-12-18T04:10:27;100927.0;;;19.99;33.73
48530;BME280;34927;37.302;-121.982;2022-12-18T04:11:31;100926.0;;;19.97;33.71
48530;BME280;34927;37.302;-121.982;2022-12-18T04:12:37;100927.0;;;19.97;33.73
48530;BME280;34927;37.302;-121.982;2022-12-18T04:13:42;100926.0;;;19.99;33.70
48530;BME280;34927;37.302;-121.982;2022-12-18T04:14:46;100925.0;;;19.95;33.80
48530;BME280;34927;37.302;-121.982;2022-12-18T04:15:51;100924.0;;;19.94;33.75
48530;BME280;34927;37.302;-121.982;2022-12-18T04:16:56;100923.0;;;19.94;33.74
48530;BME280;34927;37.302;-121.982;2022-12-18T04:18:01;100922.0;;;19.86;33.80
48530;BME280;34927;37.302;-121.982;2022-12-18T04:19:06;100922.0;;;19.97;33.65
48530;BME280;34927;37.302;-121.982;2022-12-18T04:20:11;100921.0;;;19.89;33.83
48530;BME280;34927;37.302;-121.982;2022-12-18T04:21:17;100923.0;;;19.93;33.75
48530;BME280;34927;37.302;-121.982;2022-12-18T04:22:21;100923.0;;;19.89;33.82
48530;BME280;34927;37.302;-121.982;2022-12-18T04:23:26;100921.0;;;19.85;33.83
48530;BME280;34927;37.302;-121.982;2022-12-18T04:24:32;100920.0;;;19.82;33.93
48530;BME280;34927;37.302;-121.982;2022-12-18T04:25:36;100919.0;;;19.82;33.96
48530;BME280;34927;37.302;-121.982;2022-12-18T04:26:42;100919.0;;;19.90;33.72
48530;BME280;34927;37.302;-121.982;2022-12-18T04:27:47;100916.0;;;19.82;33.81
48530;BME280;34927;37.302;-121.982;2022-12-18T04:28:51;100917.0;;;19.87;33.80
48530;BME280;34927;37.302;-121.982;2022-12-18T04:29:57;100920.0;;;19.85;33.76
48530;BME280;34927;37.302;-121.982;2022-12-18T04:31:02;100919.0;;;19.86;33.75
48530;BME280;34927;37.302;-121.982;2022-12-18T04:32:07;100921.0;;;19.88;33.76
48530;BME280;34927;37.302;-121.982;2022-12-18T04:33:12;100920.0;;;19.81;33.82
48530;BME280;34927;37.302;-121.982;2022-12-18T04:34:16;100922.0;;;19.78;33.90
48530;BME280;34927;37.302;-121.982;2022-12-18T04:35:21;100923.0;;;19.71;33.93
48530;BME280;34927;37.302;-121.982;2022-12-18T04:36:26;100924.0;;;19.70;33.95
48530;BME280;34927;37.302;-121.982;2022-12-18T04:37:31;100928.0;;;19.67;34.01
48530;BME280;34927;37.302;-121.982;2022-12-18T04:38:36;100927.0;;;19.68;33.99
48530;BME280;34927;37.302;-121.982;2022-12-18T04:39:41;100925.0;;;19.66;34.03
48530;BME280;34927;37.302;-121.982;2022-12-18T04:40:46;100927.0;;;19.69;34.00
48530;BME280;34927;37.302;-121.982;2022-12-18T04:41:52;100925.0;;;19.70;33.95
48530;BME280;34927;37.302;-121.982;2022-12-18T04:42:56;100929.0;;;19.64;33.99
48530;BME280;34927;37.302;-121.982;2022-12-18T04:44:02;100927.0;;;19.64;34.02
48530;BME280;34927;37.302;-121.982;2022-12-18T04:45:08;100927.0;;;19.72;33.90
48530;BME280;34927;37.302;-121.982;2022-12-18T04:46:11;100928.0;;;19.70;33.95
48530;BME280;34927;37.302;-121.982;2022-12-18T04:47:17;100925.0;;;19.73;33.84
48530;BME280;34927;37.302;-121.982;2022-12-18T04:48:21;100929.0;;;19.70;33.95
48530;BME280;34927;37.302;-121.982;2022-12-18T04:49:27;100929.0;;;19.65;33.95
48530;BME280;34927;37.302;-121.982;2022-12-18T04:50:31;100931.0;;;19.61;34.03
48530;BME280;34927;37.302;-121.982;2022-12-18T04:51:37;100932.0;;;19.58;34.07
48530;BME280;34927;37.302;-121.982;2022-12-18T04:52:41;100933.0;;;19.49;34.22
48530;BME280;34927;37.302;-121.982;2022-12-18T04:53:46;100933.0;;;19.60;34.04
48530;BME280;34927;37.302;-121.982;2022-12-18T04:54:51;100933.0;;;19.55;34.04
48530;BME280;34927;37.302;-121.982;2022-12-18T04:56:06;100930.0;;;19.55;34.05
48530;BME280;34927;37.302;-121.982;2022-12-18T04:57:12;100929.0;;;19.52;34.08
48530;BME280;34927;37.302;-121.982;2022-12-18T04:58:16;100928.0;;;19.56;34.10
48530;BME280;34927;37.302;-121.982;2022-12-18T04:59:22;100926.0;;;19.58;33.96
48530;BME280;34927;37.302;-121.982;2022-12-18T05:00:26;100928.0;;;19.58;33.94
48530;BME280;34927;37.302;-121.982;2022-12-18T05:01:32;100926.0;;;19.54;34.05
48530;BME280;34927;37.302;-121.982;2022-12-18T05:02:36;100926.0;;;19.46;34.18
48530;BME280;34927;37.302;-121.982;2022-12-18T05:03:42;100929.0;;;19.53;34.07
48530;BME280;34927;37.302;-121.982;2022-12-18T05:04:46;100928.0;;;19.42;34.18
48530;BME280;34927;37.302;-121.982;2022-12-18T05:05:52;100930.0;;;19.44;34.15
48530;BME280;34927;37.302;-121.982;2022-12-18T05:06:56;100931.0;;;19.42;34.12
48530;BME280;34927;37.302;-121.982;2022-12-18T05:08:02;100931.0;;;19.47;34.06
48530;BME280;34927;37.302;-121.982;2022-12-18T05:09:06;100932.0;;;19.43;34.14
48530;BME280;34927;37.302;-121.982;2022-12-18T05:10:11;100933.0;;;19.36;34.22
48530;BME280;34927;37.302;-121.982;2022-12-18T05:11:17;100935.0;;;19.33;34.34
48530;BME280;34927;37.302;-121.982;2022-12-18T05:12:21;100936.0;;;19.46;34.09
48530;BME280;34927;37.302;-121.982;2022-12-18T05:13:27;100934.0;;;19.46;34.05
48530;BME280;34927;37.302;-121.982;2022-12-18T05:14:32;100933.0;;;19.41;34.15
48530;BME280;34927;37.302;-121.982;2022-12-18T05:15:36;100931.0;;;19.42;34.13
48530;BME280;34927;37.302;-121.982;2022-12-18T05:16:41;100929.0;;;19.40;34.14
48530;BME280;34927;37.302;-121.982;2022-12-18T05:17:46;100929.0;;;19.38;34.15
48530;BME280;34927;37.302;-121.982;2022-12-18T05:18:52;100930.0;;;19.33;34.23
48530;BME280;34927;37.302;-121.982;2022-12-18T05:19:56;100929.0;;;19.35;34.18
48530;BME280;34927;37.302;-121.982;2022-12-18T05:21:02;100927.0;;;19.39;33.99
48530;BME280;34927;37.302;-121.982;2022-12-18T05:22:07;100925.0;;;19.31;34.22
48530;BME280;34927;37.302;-121.982;2022-12-18T05:23:11;100927.0;;;19.24;34.34
48530;BME280;34927;37.302;-121.982;2022-12-18T05:24:17;100925.0;;;19.19;34.42
48530;BME280;34927;37.302;-121.982;2022-12-18T05:25:22;100925.0;;;19.24;34.38
48530;BME280;34927;37.302;-121.982;2022-12-18T05:26:27;100923.0;;;19.32;34.21
48530;BME280;34927;37.302;-121.982;2022-12-18T05:27:31;100923.0;;;19.29;34.26
48530;BME280;34927;37.302;-121.982;2022-12-18T05:28:37;100921.0;;;19.19;34.36
48530;BME280;34927;37.302;-121.982;2022-12-18T05:29:41;100919.0;;;19.14;34.47
48530;BME280;34927;37.302;-121.982;2022-12-18T05:30:48;100920.0;;;19.21;34.31
48530;BME280;34927;37.302;-121.982;2022-12-18T05:31:52;100918.0;;;19.17;34.37
48530;BME280;34927;37.302;-121.982;2022-12-18T05:32:57;100918.0;;;19.18;34.35
48530;BME280;34927;37.302;-121.982;2022-12-18T05:34:02;100917.0;;;19.12;34.45
48530;BME280;34927;37.302;-121.982;2022-12-18T05:35:09;100916.0;;;19.13;34.40
48530;BME280;34927;37.302;-121.982;2022-12-18T05:36:11;100915.0;;;19.10;34.44
48530;BME280;34927;37.302;-121.982;2022-12-18T05:37:16;100916.0;;;19.10;34.46
48530;BME280;34927;37.302;-121.982;2022-12-18T05:38:23;100916.0;;;19.12;34.47
48530;BME280;34927;37.302;-121.982;2022-12-18T05:39:27;100918.0;;;19.07;34.48
48530;BME280;34927;37.302;-121.982;2022-12-18T05:40:32;100916.0;;;19.09;34.41
48530;BME280;34927;37.302;-121.982;2022-12-18T05:41:36;100916.0;;;19.07;34.50